createdAt,value
2023-04-09T00:09:56.828Z,44.00
2023-04-09T00:20:03.038Z,43.00
2023-04-09T00:30:12.024Z,39.20
2023-04-09T00:40:19.252Z,43.10
2023-04-09T00:50:26.665Z,48.80
2023-04-09T01:00:33.845Z,49.00
2023-04-09T01:10:39.123Z,35.50
2023-04-09T01:20:47.843Z,33.60
2023-04-09T01:30:59.820Z,35.70
2023-04-09T01:41:06.013Z,36.10
2023-04-09T01:51:13.027Z,44.00
2023-04-09T02:01:22.424Z,49.40
2023-04-09T02:21:35.097Z,32.70
2023-04-09T02:31:41.998Z,33.30
2023-04-09T02:41:48.962Z,23.70
2023-04-09T02:51:56.042Z,28.70
2023-04-09T03:02:02.669Z,37.60
2023-04-09T03:12:08.707Z,35.70
2023-04-09T03:22:16.102Z,30.50
2023-04-09T03:32:23.079Z,28.20
2023-04-09T03:42:30.552Z,30.90
2023-04-09T03:52:37.504Z,40.60
2023-04-09T04:12:51.259Z,36.20
2023-04-09T04:22:58.459Z,32.00
2023-04-09T04:33:05.454Z,33.40
2023-04-09T04:43:12.596Z,33.90
2023-04-09T04:53:19.519Z,41.00
2023-04-09T05:03:27.598Z,46.50
2023-04-09T05:13:34.846Z,44.30
2023-04-09T05:23:42.933Z,44.70
2023-04-09T05:33:50.069Z,48.10
2023-04-09T05:43:57.887Z,42.00
2023-04-09T06:04:11.301Z,51.30
2023-04-09T06:14:18.643Z,48.00
2023-04-09T06:24:25.814Z,37.50
2023-04-09T06:34:32.853Z,28.70
2023-04-09T06:44:40.833Z,27.20
2023-04-09T06:54:48.081Z,27.90
2023-04-09T07:04:55.214Z,27.10
2023-04-09T07:15:01.532Z,20.60
2023-04-09T07:25:09.864Z,20.50
2023-04-09T07:35:18.811Z,17.30
2023-04-09T07:45:26.400Z,17.80
2023-04-09T07:55:33.558Z,15.10
2023-04-09T08:05:40.709Z,14.60
2023-04-09T08:15:47.697Z,15.40
2023-04-09T08:25:54.861Z,15.00
2023-04-09T08:36:03.366Z,13.20
2023-04-09T08:46:16.048Z,11.30
2023-04-09T08:56:23.997Z,13.30
2023-04-09T09:06:33.304Z,13.20
2023-04-09T09:16:41.234Z,15.50
2023-04-09T09:26:48.526Z,14.00
2023-04-09T09:36:55.826Z,15.10
2023-04-09T09:47:04.931Z,14.40
2023-04-09T09:57:14.144Z,13.40
2023-04-09T10:07:22.314Z,10.90
2023-04-09T10:17:29.719Z,13.40
2023-04-09T10:27:36.232Z,13.10
2023-04-09T10:37:50.908Z,13.60
2023-04-09T10:47:58.052Z,20.00
2023-04-09T10:58:04.600Z,13.80
2023-04-09T11:08:13.266Z,15.40
2023-04-09T11:18:23.909Z,21.70
2023-04-09T11:28:31.438Z,16.30
2023-04-09T11:38:39.088Z,15.40
2023-04-09T11:48:47.084Z,16.80
2023-04-09T11:58:56.057Z,17.10
2023-04-09T12:09:03.340Z,19.50
2023-04-09T12:19:11.778Z,18.60
2023-04-09T12:29:21.394Z,16.60
2023-04-09T12:39:28.739Z,14.70
2023-04-09T12:49:35.386Z,45.50
2023-04-09T12:59:42.398Z,26.90
2023-04-09T13:09:49.869Z,16.30
2023-04-09T13:19:56.406Z,29.70
2023-04-09T13:30:03.664Z,17.70
2023-04-09T13:40:12.662Z,18.80
2023-04-09T13:50:19.901Z,19.30
2023-04-09T14:00:26.052Z,19.80
2023-04-09T14:10:33.876Z,27.10
2023-04-09T14:20:41.415Z,19.20
2023-04-09T14:30:48.891Z,27.60
2023-04-09T14:40:56.175Z,31.00
2023-04-09T15:01:10.822Z,16.10
2023-04-09T15:11:16.492Z,21.50
2023-04-09T15:21:23.855Z,15.20
2023-04-09T15:31:31.213Z,22.50
2023-04-09T15:41:38.370Z,20.30
2023-04-09T15:51:45.461Z,20.50
2023-04-09T16:01:53.276Z,17.20
2023-04-09T16:12:01.669Z,22.50
2023-04-09T16:22:08.703Z,27.10
2023-04-09T16:32:16.830Z,51.20
2023-04-09T16:42:24.364Z,38.60
2023-04-09T17:02:39.593Z,42.50
2023-04-09T17:12:47.471Z,44.30
2023-04-09T17:22:54.492Z,44.10
2023-04-09T17:33:00.291Z,49.80
2023-04-09T17:43:08.009Z,42.70
2023-04-09T17:53:15.151Z,44.50
2023-04-09T18:03:22.581Z,45.50
2023-04-09T18:13:30.159Z,40.70
2023-04-09T18:23:39.649Z,42.50
2023-04-09T18:33:46.908Z,46.40
2023-04-09T18:43:54.250Z,44.70
2023-04-09T18:54:00.805Z,46.80
2023-04-09T19:04:08.322Z,45.40
2023-04-09T19:14:15.517Z,46.70
2023-04-09T19:24:23.790Z,49.40
2023-04-09T19:34:31.429Z,54.00
2023-04-09T19:44:38.662Z,51.60
2023-04-09T19:54:46.673Z,49.30
2023-04-09T20:04:52.569Z,45.40
2023-04-09T20:14:58.723Z,42.90
2023-04-09T20:25:07.832Z,44.30
2023-04-09T20:35:14.678Z,48.00
2023-04-09T20:45:20.639Z,47.10
2023-04-09T20:55:28.129Z,53.10
2023-04-09T21:05:35.846Z,50.60
2023-04-09T21:15:43.046Z,44.30
2023-04-09T21:25:50.185Z,47.70
2023-04-09T21:35:57.853Z,43.90
2023-04-09T21:46:05.211Z,43.50
2023-04-09T21:56:10.065Z,49.10
2023-04-09T22:06:17.143Z,49.80
2023-04-09T22:16:24.672Z,47.60
2023-04-09T22:26:31.163Z,46.00
2023-04-09T22:36:38.725Z,46.10
2023-04-09T22:46:46.531Z,44.60
2023-04-09T22:56:53.180Z,46.00
2023-04-09T23:07:00.231Z,47.00
2023-04-09T23:17:07.149Z,45.40
2023-04-09T23:27:14.325Z,50.50
2023-04-09T23:37:21.697Z,49.20
2023-04-09T23:47:28.897Z,54.70
2023-04-09T23:57:35.929Z,60.20
